Time;durP1;ratioP1;P1;durP2;ratioP2;P2;SDS_P1;SDS_P2;PMS_P1;PMS_P2;Temp;Humidity;BMP_temperature;BMP_pressure;BME280_temperature;BME280_humidity;BME280_pressure;Samples;Min_cycle;Max_cycle;Signal;HPM_P1;HPM_P2
2021/05/20 00:01:19;;;;;;;8.87;7.97;;;;;;;10.25;78.06;101041.75;5058801;28;20768;-67
2021/05/20 00:03:46;;;;;;;8.47;7.27;;;;;;;10.25;78.16;101031.13;5063526;28;20699;-65
2021/05/20 00:06:12;;;;;;;8.53;7.63;;;;;;;10.27;78.69;101039.03;5058396;28;20205;-68
2021/05/20 00:08:38;;;;;;;8.30;7.50;;;;;;;10.25;78.57;101031.13;5063746;28;20205;-68
2021/05/20 00:11:04;;;;;;;7.70;6.93;;;;;;;10.24;78.73;101037.38;5052399;28;20201;-67
2021/05/20 00:13:30;;;;;;;8.43;7.63;;;;;;;10.24;78.79;101036.53;5059910;28;20700;-70
2021/05/20 00:15:57;;;;;;;9.90;7.53;;;;;;;10.21;78.47;101032.22;5063783;28;20599;-68
2021/05/20 00:18:23;;;;;;;9.40;7.30;;;;;;;10.21;78.63;101031.41;5059827;28;20278;-66
2021/05/20 00:20:50;;;;;;;8.07;7.30;;;;;;;10.21;78.80;101042.03;5063669;28;20209;-68
2021/05/20 00:23:16;;;;;;;8.20;7.40;;;;;;;10.19;78.55;101046.59;5056254;28;20205;-67
2021/05/20 00:25:42;;;;;;;8.87;7.90;;;;;;;10.17;78.02;101053.75;5062070;28;20220;-67
2021/05/20 00:39:09;;;;;;;8.70;7.80;;;;;;;10.01;78.54;101059.06;5062255;28;20212;-68
2021/05/20 00:41:36;;;;;;;9.33;8.40;;;;;;;9.96;78.22;101063.78;5059205;28;20213;-67
2021/05/20 00:44:02;;;;;;;10.93;8.17;;;;;;;9.93;78.78;101062.13;5059517;28;20228;-64
2021/05/20 00:46:28;;;;;;;9.70;7.77;;;;;;;9.89;78.30;101065.91;5059339;28;20212;-68
2021/05/20 00:48:54;;;;;;;8.63;7.83;;;;;;;9.87;78.36;101067.78;5054205;28;20198;-67
2021/05/20 00:51:20;;;;;;;9.83;8.40;;;;;;;9.84;79.10;101067.09;5060042;28;20292;-67
2021/05/20 00:53:48;;;;;;;10.00;8.30;;;;;;;9.83;78.97;101074.22;5064002;28;20678;-65
2021/05/20 00:56:15;;;;;;;11.07;8.73;;;;;;;9.81;78.82;101072.59;5053943;28;20672;-67
2021/05/20 00:58:45;;;;;;;11.00;8.40;;;;;;;9.79;79.19;101072.66;5059547;28;20717;-68
2021/05/20 01:01:12;;;;;;;9.57;8.57;;;;;;;9.76;79.06;101064.84;5053409;28;20255;-67
2021/05/20 01:03:38;;;;;;;10.47;8.37;;;;;;;9.74;79.31;101074.69;5066470;28;20581;-69
2021/05/20 01:06:04;;;;;;;10.03;9.00;;;;;;;9.71;79.31;101067.75;5057664;28;20209;-67
2021/05/20 01:08:30;;;;;;;12.17;9.07;;;;;;;9.68;79.35;101065.22;5060635;28;20208;-67
2021/05/20 01:10:58;;;;;;;11.47;9.53;;;;;;;9.66;79.48;101072.47;5060257;28;20217;-67
2021/05/20 01:13:24;;;;;;;10.87;9.53;;;;;;;9.63;79.30;101074.41;5063518;28;20214;-64
2021/05/20 01:15:51;;;;;;;10.10;9.00;;;;;;;9.60;79.19;101080.75;5063157;28;20331;-65
2021/05/20 01:18:17;;;;;;;11.30;9.63;;;;;;;9.59;79.39;101080.84;5063096;28;20278;-67
2021/05/20 01:20:44;;;;;;;10.83;8.87;;;;;;;9.56;79.84;101084.50;5056132;28;20217;-67
2021/05/20 01:23:13;;;;;;;13.40;10.03;;;;;;;9.54;79.58;101080.19;5056866;28;20206;-67
2021/05/20 01:25:40;;;;;;;10.40;9.30;;;;;;;9.52;79.08;101088.25;5058515;28;20960;-67
2021/05/20 01:28:08;;;;;;;11.20;9.90;;;;;;;9.50;79.50;101089.28;5053639;28;20263;-67
2021/05/20 01:30:36;;;;;;;13.00;9.60;;;;;;;9.45;79.92;101089.53;5066673;28;20577;-65
2021/05/20 01:33:02;;;;;;;11.30;10.13;;;;;;;9.44;79.97;101095.78;5067982;28;20211;-67
2021/05/20 01:35:28;;;;;;;11.80;10.40;;;;;;;9.42;79.30;101095.00;5060860;28;20770;-67
2021/05/20 01:38:14;;;;;;;11.63;10.03;;;;;;;9.39;79.69;101090.69;5060970;28;20613;-68
2021/05/20 01:40:40;;;;;;;10.80;9.70;;;;;;;9.36;79.61;101095.31;5057963;28;20201;-67
2021/05/20 01:43:06;;;;;;;11.83;9.77;;;;;;;9.33;79.41;101088.34;5057272;28;20205;-67
2021/05/20 01:45:32;;;;;;;12.43;10.53;;;;;;;9.32;80.18;101097.25;5081878;22;20232;-68
2021/05/20 01:47:59;;;;;;;11.67;10.43;;;;;;;9.30;79.82;101106.28;5082626;28;20203;-69
2021/05/20 01:50:25;;;;;;;13.63;10.67;;;;;;;9.28;80.41;101109.00;5077969;28;20197;-68
2021/05/20 01:52:51;;;;;;;13.47;10.77;;;;;;;9.28;80.01;101113.47;5087606;28;20196;-69
2021/05/20 01:55:18;;;;;;;13.33;10.50;;;;;;;9.26;80.62;101115.34;5093164;28;20224;-69
2021/05/20 01:57:44;;;;;;;13.30;10.90;;;;;;;9.24;80.36;101110.09;5092892;28;20220;-68
2021/05/20 02:00:12;;;;;;;13.40;11.20;;;;;;;9.23;80.84;101112.81;5090585;28;20800;-68
2021/05/20 02:02:38;;;;;;;13.83;11.00;;;;;;;9.21;80.29;101112.91;5092333;28;20261;-69
2021/05/20 02:05:05;;;;;;;11.67;10.20;;;;;;;9.20;80.30;101116.50;5091920;28;20224;-67
2021/05/20 02:07:31;;;;;;;11.70;10.23;;;;;;;9.19;80.02;101113.91;5093174;28;20203;-69
2021/05/20 02:09:57;;;;;;;13.07;11.37;;;;;;;9.18;80.60;101117.50;5088831;28;20283;-68
2021/05/20 02:12:24;;;;;;;14.83;11.70;;;;;;;9.16;81.16;101109.59;5091581;28;20206;-67
2021/05/20 02:14:50;;;;;;;14.40;11.67;;;;;;;9.15;80.74;101105.22;5092656;28;20228;-67
2021/05/20 02:17:16;;;;;;;13.77;11.60;;;;;;;9.15;81.38;101117.66;5088467;28;20200;-68
2021/05/20 02:19:42;;;;;;;13.10;11.67;;;;;;;9.14;80.69;101118.59;5092307;28;20553;-67
2021/05/20 02:22:08;;;;;;;15.13;11.47;;;;;;;9.12;81.13;101115.16;5091024;28;20207;-68
2021/05/20 02:24:34;;;;;;;13.73;11.47;;;;;;;9.11;80.83;101113.44;5085905;28;20227;-67
2021/05/20 02:27:00;;;;;;;15.40;12.00;;;;;;;9.09;81.29;101123.28;5089219;28;20216;-68
2021/05/20 02:29:27;;;;;;;15.30;12.47;;;;;;;9.06;81.11;101118.97;5091532;28;20662;-69
2021/05/20 02:31:53;;;;;;;15.73;11.70;;;;;;;9.05;81.02;101115.47;5088530;28;20200;-68
2021/05/20 02:34:19;;;;;;;15.47;12.63;;;;;;;9.02;81.00;101118.25;5087735;28;20729;-69
2021/05/20 02:36:45;;;;;;;14.57;12.40;;;;;;;9.01;81.61;101113.88;5091570;28;20678;-68
2021/05/20 02:39:11;;;;;;;14.47;11.70;;;;;;;8.99;80.94;101114.91;5087253;28;20223;-68
2021/05/20 02:41:37;;;;;;;14.30;12.17;;;;;;;8.98;81.38;101122.00;5090896;28;20207;-69
2021/05/20 02:44:03;;;;;;;14.43;12.47;;;;;;;8.95;81.07;101122.19;5089428;28;20200;-69
2021/05/20 02:46:31;;;;;;;16.77;13.20;;;;;;;8.93;81.33;101126.69;5092017;28;20212;-68
2021/05/20 02:48:56;;;;;;;15.23;12.80;;;;;;;8.92;81.21;101135.59;5085831;28;20200;-67
2021/05/20 02:51:22;;;;;;;14.70;12.23;;;;;;;8.90;81.10;101128.66;5090320;28;20287;-71
2021/05/20 02:53:49;;;;;;;15.47;12.97;;;;;;;8.89;81.18;101132.22;5090423;28;20647;-68
2021/05/20 02:56:15;;;;;;;15.43;12.10;;;;;;;8.86;81.96;101127.94;5090794;28;20222;-69
2021/05/20 02:58:41;;;;;;;15.40;13.07;;;;;;;8.85;81.88;101131.50;5085053;28;20291;-68
2021/05/20 03:01:07;;;;;;;16.13;13.37;;;;;;;8.84;81.04;101132.44;5089757;28;20200;-68
2021/05/20 03:03:34;;;;;;;18.20;13.87;;;;;;;8.82;81.42;101122.84;5090461;28;20291;-68
2021/05/20 03:06:00;;;;;;;16.60;12.43;;;;;;;8.79;81.22;101120.31;5084758;28;20243;-68
2021/05/20 03:08:26;;;;;;;17.00;13.77;;;;;;;8.77;82.37;101120.41;5091114;28;20266;-68
2021/05/20 03:10:52;;;;;;;18.23;13.70;;;;;;;8.75;82.20;101124.94;5090486;28;20211;-68
2021/05/20 03:13:18;;;;;;;16.17;13.80;;;;;;;8.75;82.04;101126.75;5089913;28;20200;-68
2021/05/20 03:15:44;;;;;;;18.47;13.57;;;;;;;8.73;81.72;101128.59;5090387;28;20600;-68
2021/05/20 03:18:10;;;;;;;19.00;13.63;;;;;;;8.70;81.92;101125.16;5091562;28;20723;-67
2021/05/20 03:20:37;;;;;;;17.50;12.97;;;;;;;8.69;81.59;101131.41;5090476;28;20677;-66
2021/05/20 03:23:03;;;;;;;16.43;13.70;;;;;;;8.67;82.53;101130.59;5091001;28;20257;-67
2021/05/20 03:25:29;;;;;;;19.27;14.17;;;;;;;8.67;82.00;101132.41;5089175;28;20228;-67
2021/05/20 03:27:55;;;;;;;19.87;13.47;;;;;;;8.67;82.46;101129.75;5090063;28;20196;-66
2021/05/20 03:30:22;;;;;;;17.57;13.90;;;;;;;8.66;82.63;101130.69;5090363;28;20200;-67
2021/05/20 03:32:48;;;;;;;16.43;12.63;;;;;;;8.64;82.16;101135.19;5088316;28;20204;-67
2021/05/20 03:35:14;;;;;;;18.93;13.87;;;;;;;8.62;82.22;101126.44;5090704;28;20216;-68
2021/05/20 03:37:41;;;;;;;19.70;13.87;;;;;;;8.61;81.76;101135.34;5091207;28;20232;-68
2021/05/20 03:40:08;;;;;;;20.23;14.63;;;;;;;8.60;81.95;101134.47;5086087;28;20200;-67
2021/05/20 03:42:35;;;;;;;18.23;14.37;;;;;;;8.59;82.45;101126.63;5089316;28;20723;-67
2021/05/20 03:45:01;;;;;;;19.30;14.87;;;;;;;8.59;82.07;101126.63;5090567;28;20239;-67
2021/05/20 03:47:27;;;;;;;18.77;14.10;;;;;;;8.58;81.73;101127.53;5090305;28;20218;-68
2021/05/20 03:49:53;;;;;;;20.70;14.67;;;;;;;8.57;81.81;101123.16;5091194;28;20200;-68
2021/05/20 03:52:19;;;;;;;20.67;15.20;;;;;;;8.56;82.35;101124.09;5089165;28;20196;-67
2021/05/20 03:54:46;;;;;;;18.73;14.10;;;;;;;8.54;82.90;101115.34;5089822;28;20231;-67
2021/05/20 03:57:12;;;;;;;17.90;13.43;;;;;;;8.54;82.31;101123.31;5091046;28;20208;-68
2021/05/20 03:59:38;;;;;;;17.20;13.37;;;;;;;8.53;82.46;101129.53;5089059;28;20215;-68
2021/05/20 04:02:05;;;;;;;19.13;14.13;;;;;;;8.54;82.86;101129.47;5089173;28;20207;-68
2021/05/20 04:04:31;;;;;;;19.17;14.13;;;;;;;8.53;82.70;101143.69;5088359;28;20242;-67
2021/05/20 04:06:57;;;;;;;18.80;13.73;;;;;;;8.53;82.98;101138.38;5089567;28;20204;-67
2021/05/20 04:09:23;;;;;;;19.10;14.70;;;;;;;8.53;82.24;101137.50;5089135;28;20211;-67
2021/05/20 04:11:50;;;;;;;20.27;15.17;;;;;;;8.53;82.86;101149.00;5088513;28;20291;-67
2021/05/20 04:14:16;;;;;;;19.40;14.40;;;;;;;8.54;82.38;101144.53;5085601;28;20215;-67
2021/05/20 04:16:42;;;;;;;21.63;15.27;;;;;;;8.55;82.96;101152.44;5089529;28;20200;-67
2021/05/20 04:19:08;;;;;;;21.17;15.03;;;;;;;8.56;82.72;101154.16;5089848;28;20635;-66
2021/05/20 04:21:34;;;;;;;22.03;15.43;;;;;;;8.58;82.78;101151.44;5088368;28;20200;-68
2021/05/20 04:24:01;;;;;;;23.37;16.47;;;;;;;8.58;83.18;101152.31;5089625;28;20256;-67
2021/05/20 04:26:27;;;;;;;22.97;15.73;;;;;;;8.60;83.28;101149.53;5088987;28;20215;-67
2021/05/20 04:28:54;;;;;;;24.83;16.53;;;;;;;8.62;83.22;101158.31;5089850;28;20211;-67
2021/05/20 04:31:20;;;;;;;30.80;18.70;;;;;;;8.62;83.73;101156.50;5089137;28;20666;-68
2021/05/20 04:33:46;;;;;;;29.63;17.73;;;;;;;8.64;82.65;101159.97;5088083;28;20262;-67
2021/05/20 04:36:12;;;;;;;24.30;16.47;;;;;;;8.65;83.20;101163.47;5088220;28;20219;-67
2021/05/20 04:38:38;;;;;;;21.63;14.63;;;;;;;8.67;83.75;101164.25;5088585;28;20224;-67
2021/05/20 04:41:04;;;;;;;20.03;13.90;;;;;;;8.68;82.97;101158.88;5087318;28;20214;-67
2021/05/20 04:43:30;;;;;;;19.63;14.40;;;;;;;8.70;82.76;101172.09;5088008;28;20196;-67
2021/05/20 04:45:57;;;;;;;21.13;13.97;;;;;;;8.72;83.25;101170.22;5088124;28;20235;-67
2021/05/20 04:48:23;;;;;;;17.90;13.43;;;;;;;8.74;82.71;101178.13;5088610;28;20564;-67
2021/05/20 04:50:49;;;;;;;19.60;13.70;;;;;;;8.75;82.89;101172.75;5088331;28;20204;-69
2021/05/20 04:53:16;;;;;;;16.90;13.20;;;;;;;8.78;82.84;101175.22;5085081;28;20706;-68
2021/05/20 04:55:42;;;;;;;19.27;14.30;;;;;;;8.81;83.22;101182.19;5084432;28;20220;-68
2021/05/20 04:58:08;;;;;;;18.83;14.00;;;;;;;8.84;82.45;101182.91;5087995;28;20224;-67
2021/05/20 05:00:34;;;;;;;17.40;13.07;;;;;;;8.88;83.20;101184.50;5087923;28;20737;-67
2021/05/20 05:03:01;;;;;;;16.60;13.37;;;;;;;8.91;83.06;101187.00;5088219;28;20204;-67
2021/05/20 05:05:27;;;;;;;16.47;12.97;;;;;;;8.93;82.69;101195.78;5089492;28;20242;-68
2021/05/20 05:07:53;;;;;;;20.23;13.13;;;;;;;8.97;83.19;101196.47;5088570;28;20582;-67
2021/05/20 05:10:19;;;;;;;16.83;13.73;;;;;;;8.99;83.06;101192.81;5089417;28;20290;-69
2021/05/20 05:12:45;;;;;;;15.77;12.90;;;;;;;9.03;82.77;101199.69;5088702;28;20197;-68
2021/05/20 05:15:11;;;;;;;16.03;12.87;;;;;;;9.09;82.88;101195.03;5088804;28;20226;-67
2021/05/20 05:17:37;;;;;;;19.43;14.47;;;;;;;9.14;82.28;101195.66;5088921;28;20224;-66
2021/05/20 05:20:06;;;;;;;17.23;12.10;;;;;;;9.19;83.14;101202.47;5088982;28;20673;-67
2021/05/20 05:22:33;;;;;;;17.17;13.80;;;;;;;9.24;82.77;101200.47;5087870;28;20239;-68
2021/05/20 05:24:59;;;;;;;18.67;13.37;;;;;;;9.29;82.50;101201.09;5085737;28;20311;-67
2021/05/20 05:27:25;;;;;;;19.73;13.50;;;;;;;9.37;82.99;101204.22;5087635;28;20200;-67
2021/05/20 05:29:51;;;;;;;19.90;14.53;;;;;;;9.44;83.01;101204.78;5087630;28;20223;-67
2021/05/20 05:32:17;;;;;;;17.93;13.77;;;;;;;9.54;82.70;101205.19;5088053;28;20197;-70
2021/05/20 05:34:43;;;;;;;16.67;12.50;;;;;;;9.66;82.81;101204.59;5087530;28;20239;-71
2021/05/20 05:37:10;;;;;;;15.90;12.97;;;;;;;9.79;82.63;101210.13;5090000;28;20204;-70
2021/05/20 05:39:36;;;;;;;14.93;12.23;;;;;;;9.91;82.63;101212.16;5089374;28;20219;-68
2021/05/20 05:42:02;;;;;;;17.13;11.90;;;;;;;10.02;81.76;101212.47;5089598;28;20201;-70
2021/05/20 05:44:28;;;;;;;15.07;12.23;;;;;;;10.13;81.61;101209.22;5088753;28;20232;-70
2021/05/20 05:46:54;;;;;;;14.73;12.37;;;;;;;10.26;81.94;101205.00;5089631;28;20207;-70
2021/05/20 05:49:24;;;;;;;15.20;12.43;;;;;;;10.37;81.51;101211.50;5091830;28;20196;-70
2021/05/20 05:51:52;;;;;;;16.63;13.17;;;;;;;10.52;81.02;101211.63;5092566;28;20281;-70
2021/05/20 05:54:19;;;;;;;15.83;11.77;;;;;;;10.65;80.68;101212.66;5092743;28;20205;-69
2021/05/20 05:56:45;;;;;;;14.33;12.57;;;;;;;10.81;80.45;101220.66;5092770;28;20541;-69
2021/05/20 05:59:11;;;;;;;14.43;12.47;;;;;;;10.93;79.80;101219.97;5092817;28;20220;-69
2021/05/20 06:01:39;;;;;;;17.27;12.50;;;;;;;11.03;79.39;101231.84;5091544;28;20212;-69
2021/05/20 06:04:06;;;;;;;15.33;12.00;;;;;;;11.17;78.96;101233.75;5093030;28;20219;-70
2021/05/20 06:06:32;;;;;;;16.57;13.40;;;;;;;11.29;78.50;101238.38;5086955;28;20666;-69
2021/05/20 06:08:58;;;;;;;16.40;13.60;;;;;;;11.43;78.62;101235.78;5093075;28;20402;-70
2021/05/20 06:11:25;;;;;;;15.70;13.17;;;;;;;11.54;78.01;101230.69;5087361;28;20202;-66
2021/05/20 06:13:51;;;;;;;18.70;13.53;;;;;;;11.63;77.73;101230.16;5084824;28;20231;-66
2021/05/20 06:16:17;;;;;;;17.67;14.03;;;;;;;11.71;77.21;101233.22;5084059;28;20719;-66
2021/05/20 06:18:43;;;;;;;15.60;13.90;;;;;;;11.79;76.92;101225.69;5090011;28;20233;-66
2021/05/20 06:21:09;;;;;;;14.60;13.03;;;;;;;11.88;76.77;101223.41;5091765;28;20210;-67
2021/05/20 06:23:35;;;;;;;14.83;13.20;;;;;;;12.00;76.85;101228.03;5089051;28;20230;-66
2021/05/20 06:26:01;;;;;;;16.43;13.00;;;;;;;12.12;76.05;101236.16;5090601;28;20310;-66
2021/05/20 06:28:28;;;;;;;14.47;12.97;;;;;;;12.19;74.98;101239.28;5090526;28;20681;-66
2021/05/20 06:30:54;;;;;;;14.43;12.93;;;;;;;12.25;74.56;101246.06;5091360;28;20295;-66
2021/05/20 06:33:20;;;;;;;16.43;14.20;;;;;;;12.31;74.33;101241.22;5090496;28;20200;-66
2021/05/20 06:35:47;;;;;;;17.50;14.03;;;;;;;12.36;73.86;101244.44;5089998;28;20779;-66
2021/05/20 06:38:13;;;;;;;16.00;13.87;;;;;;;12.45;74.14;101230.53;5088035;28;20220;-66
2021/05/20 06:40:39;;;;;;;16.60;14.90;;;;;;;12.56;74.02;101229.00;5090190;28;20257;-66
2021/05/20 06:43:05;;;;;;;15.50;13.43;;;;;;;12.71;74.34;101222.72;5081934;28;20222;-66
2021/05/20 06:45:32;;;;;;;16.23;13.77;;;;;;;12.89;73.60;101240.28;5089653;28;20228;-66
2021/05/20 06:47:58;;;;;;;15.33;13.83;;;;;;;12.98;72.67;101237.00;5089466;28;20223;-66
2021/05/20 06:50:24;;;;;;;17.37;13.80;;;;;;;13.01;72.43;101228.78;5089897;28;20262;-66
2021/05/20 06:52:52;;;;;;;16.10;13.30;;;;;;;13.09;72.15;101229.13;5087171;28;20213;-66
2021/05/20 06:55:19;;;;;;;15.63;13.63;;;;;;;13.20;72.07;101232.03;5090571;28;20273;-67
2021/05/20 07:00:29;;;;;;;17.00;13.70;;;;;;;13.41;71.19;101229.75;5087435;28;20203;-66
2021/05/20 07:02:56;;;;;;;14.40;13.00;;;;;;;13.50;70.58;101230.97;5088708;28;20649;-66
2021/05/20 07:05:22;;;;;;;13.70;12.27;;;;;;;13.57;69.90;101234.97;5087808;28;20246;-67
2021/05/20 07:07:48;;;;;;;14.03;12.60;;;;;;;13.63;68.95;101239.88;5086747;28;20202;-66
2021/05/20 07:10:14;;;;;;;13.77;12.37;;;;;;;13.65;68.60;101237.97;5089697;28;20290;-66
2021/05/20 07:12:40;;;;;;;13.90;12.50;;;;;;;13.69;68.48;101239.47;5088350;28;20282;-66
2021/05/20 07:15:08;;;;;;;13.30;11.40;;;;;;;13.73;68.22;101234.78;5086771;28;20224;-66
2021/05/20 07:17:34;;;;;;;14.53;11.47;;;;;;;13.82;67.87;101235.00;5088928;28;20200;-66
2021/05/20 07:20:01;;;;;;;13.23;11.80;;;;;;;13.97;68.32;101243.00;5089736;28;20336;-67
2021/05/20 07:22:27;;;;;;;13.23;11.80;;;;;;;14.05;67.33;101246.84;5088634;28;20213;-67
2021/05/20 07:24:53;;;;;;;13.27;11.87;;;;;;;14.11;66.86;101245.56;5089255;28;20298;-66
2021/05/20 07:27:20;;;;;;;11.93;10.73;;;;;;;14.25;67.32;101238.31;5088568;28;20237;-67
2021/05/20 07:29:46;;;;;;;12.33;10.70;;;;;;;14.39;66.18;101239.16;5088901;28;20246;-67
2021/05/20 07:32:17;;;;;;;11.57;10.37;;;;;;;14.40;64.71;101241.75;5087945;28;20295;-67
2021/05/20 07:34:43;;;;;;;11.43;10.27;;;;;;;14.40;64.44;101241.75;5089404;28;20224;-67
2021/05/20 07:37:10;;;;;;;11.70;10.53;;;;;;;14.42;64.15;101234.47;5087627;28;20201;-67
2021/05/20 07:39:36;;;;;;;11.67;9.77;;;;;;;14.47;64.26;101226.13;5081688;28;20232;-65
2021/05/20 07:42:02;;;;;;;11.03;9.80;;;;;;;14.51;63.72;101233.81;5084127;28;20211;-66
2021/05/20 07:47:01;;;;;;;10.13;9.13;;;;;;;14.72;63.15;101235.94;5071293;23;20279;-69
2021/05/20 07:49:27;;;;;;;9.83;8.57;;;;;;;14.90;62.90;101237.31;5043762;28;20201;-68
2021/05/20 07:51:53;;;;;;;10.27;9.23;;;;;;;14.96;61.37;101230.66;5039195;28;20204;-69
2021/05/20 07:54:20;;;;;;;9.83;8.93;;;;;;;15.00;61.16;101233.00;5038205;28;20202;-66
2021/05/20 07:56:46;;;;;;;9.53;8.13;;;;;;;15.08;61.01;101233.28;5039375;28;20233;-69
2021/05/20 07:59:14;;;;;;;8.97;7.97;;;;;;;15.19;60.56;101233.38;5039528;28;20221;-65
2021/05/20 08:01:47;;;;;;;9.17;8.37;;;;;;;15.36;59.81;101220.53;5048048;28;20215;-65
2021/05/20 08:04:15;;;;;;;9.47;8.37;;;;;;;15.50;60.12;101220.38;5049556;28;20206;-66
2021/05/20 08:06:44;;;;;;;8.57;7.67;;;;;;;15.65;59.45;101218.38;5048267;28;20225;-66
2021/05/20 08:09:20;;;;;;;7.80;7.10;;;;;;;15.81;58.88;101216.25;5042408;28;20202;-66
2021/05/20 08:11:47;;;;;;;7.13;6.43;;;;;;;15.82;57.28;101226.03;5037764;28;20199;-67
2021/05/20 08:14:13;;;;;;;7.77;7.03;;;;;;;15.75;56.83;101222.97;5049033;28;20210;-66
2021/05/20 08:16:39;;;;;;;7.17;5.77;;;;;;;15.71;56.72;101221.47;5048962;28;20233;-66
2021/05/20 08:19:05;;;;;;;5.63;5.13;;;;;;;15.75;56.74;101217.59;5043866;28;20252;-66
2021/05/20 08:21:31;;;;;;;6.70;6.00;;;;;;;15.87;57.05;101213.97;5048976;28;20260;-64
2021/05/20 08:23:57;;;;;;;7.37;5.73;;;;;;;16.09;56.28;101215.00;5037494;28;20229;-66
2021/05/20 08:26:25;;;;;;;6.73;5.77;;;;;;;16.23;55.71;101204.03;5032528;28;20247;-66
2021/05/20 08:28:52;;;;;;;6.40;5.80;;;;;;;16.34;54.73;101198.66;5034901;28;20273;-67
2021/05/20 08:31:18;;;;;;;4.93;4.40;;;;;;;16.42;54.09;101208.81;5034394;28;20230;-66
2021/05/20 08:33:44;;;;;;;5.47;4.53;;;;;;;16.44;53.18;101207.72;5032824;28;20576;-66
2021/05/20 08:36:10;;;;;;;4.50;4.10;;;;;;;16.49;53.52;101213.56;5032013;28;20797;-65
2021/05/20 08:38:37;;;;;;;5.13;4.50;;;;;;;16.60;52.75;101213.59;5030138;28;20224;-67
2021/05/20 08:41:03;;;;;;;4.67;3.93;;;;;;;16.70;52.36;101205.66;5025305;28;20213;-67
2021/05/20 08:43:29;;;;;;;4.70;3.90;;;;;;;16.83;52.02;101205.56;5030360;28;20589;-68
2021/05/20 08:45:56;;;;;;;3.83;3.20;;;;;;;16.97;51.15;101211.53;5031451;28;21065;-66
2021/05/20 08:48:22;;;;;;;4.50;3.23;;;;;;;17.05;50.28;101201.94;5030866;28;20204;-66
2021/05/20 08:50:48;;;;;;;5.03;2.83;;;;;;;17.17;50.02;101203.66;5031932;28;20219;-67
2021/05/20 08:53:14;;;;;;;4.47;2.80;;;;;;;17.28;49.73;101207.16;5029603;28;20724;-66
2021/05/20 08:55:42;;;;;;;3.67;2.93;;;;;;;17.41;49.09;101211.53;5033519;28;20232;-67
2021/05/20 08:58:10;;;;;;;3.80;2.53;;;;;;;17.52;48.38;101208.81;5031384;28;20276;-68
2021/05/20 09:00:37;;;;;;;3.53;2.70;;;;;;;17.64;48.48;101205.13;5035204;28;20734;-66
2021/05/20 09:03:06;;;;;;;4.23;3.10;;;;;;;17.75;47.91;101194.28;5033815;28;20206;-66
2021/05/20 09:05:32;;;;;;;3.30;3.00;;;;;;;17.89;47.46;101206.59;5033059;28;20739;-66
2021/05/20 09:08:01;;;;;;;4.20;3.63;;;;;;;17.98;46.97;101208.50;5039094;28;20210;-65
2021/05/20 09:10:28;;;;;;;4.20;3.80;;;;;;;17.99;46.57;101205.66;5037682;28;20209;-66
2021/05/20 09:12:58;;;;;;;3.80;3.33;;;;;;;18.05;47.85;101193.53;5037200;28;20231;-66
2021/05/20 09:15:27;;;;;;;4.80;4.03;;;;;;;18.22;48.02;101194.75;5034919;28;20319;-65
2021/05/20 09:18:02;;;;;;;4.87;3.97;;;;;;;18.36;46.92;101194.41;5039558;28;20219;-66
2021/05/20 09:20:29;;;;;;;3.50;3.20;;;;;;;18.46;46.20;101202.53;5048164;28;20198;-65
2021/05/20 09:23:04;;;;;;;3.47;2.90;;;;;;;18.49;45.43;101204.97;5047030;28;20211;-65
2021/05/20 09:25:32;;;;;;;3.80;2.90;;;;;;;18.51;45.01;101197.59;5051020;28;20303;-66
2021/05/20 09:27:58;;;;;;;3.10;2.63;;;;;;;18.47;44.61;101191.59;5052396;28;20209;-67
2021/05/20 09:30:25;;;;;;;4.47;3.90;;;;;;;18.48;44.12;101197.84;5052749;28;20220;-67
2021/05/20 09:32:53;;;;;;;4.83;3.93;;;;;;;18.51;44.67;101192.19;5039037;28;20207;-66
2021/05/20 09:35:22;;;;;;;4.27;3.87;;;;;;;18.48;44.84;101198.72;5043399;28;20228;-65
2021/05/20 09:37:52;;;;;;;4.43;3.23;;;;;;;18.52;45.09;101186.66;5049915;28;20320;-68
2021/05/20 09:40:21;;;;;;;4.70;3.20;;;;;;;18.58;44.76;101191.53;5051363;28;20218;-66
2021/05/20 09:42:48;;;;;;;3.50;3.20;;;;;;;18.59;44.57;101185.19;5042960;28;20210;-67
2021/05/20 09:45:18;;;;;;;3.70;3.30;;;;;;;18.63;44.06;101181.19;5037487;28;20243;-65
2021/05/20 09:47:44;;;;;;;4.77;3.97;;;;;;;18.60;43.38;101186.03;5046143;28;20643;-66
2021/05/20 09:50:12;;;;;;;3.07;2.77;;;;;;;18.51;43.23;101187.66;5045537;28;20198;-67
2021/05/20 09:52:38;;;;;;;3.70;2.20;;;;;;;18.48;43.42;101187.06;5050873;28;20210;-67
2021/05/20 09:55:18;;;;;;;2.57;2.30;;;;;;;18.52;43.85;101183.13;5038903;28;20279;-67
2021/05/20 09:57:45;;;;;;;3.60;3.30;;;;;;;18.63;43.94;101191.16;5038389;28;20207;-66
2021/05/20 10:00:12;;;;;;;3.47;3.17;;;;;;;18.73;44.27;101184.81;5037449;28;20207;-66
2021/05/20 10:02:39;;;;;;;3.20;2.90;;;;;;;18.81;43.59;101189.50;5039503;28;20214;-67
2021/05/20 10:05:20;;;;;;;2.30;1.70;;;;;;;18.77;42.53;101190.78;5036864;28;20232;-68
2021/05/20 10:07:46;;;;;;;2.77;1.70;;;;;;;18.65;41.24;101184.63;5041540;28;20198;-66
2021/05/20 10:10:14;;;;;;;2.33;1.70;;;;;;;18.61;41.09;101182.34;5040339;28;20694;-66
2021/05/20 10:12:43;;;;;;;2.70;2.00;;;;;;;18.60;41.17;101181.50;5039921;28;20205;-66
2021/05/20 10:15:12;;;;;;;3.30;2.50;;;;;;;18.66;41.18;101177.38;5038600;28;20258;-66
2021/05/20 10:17:40;;;;;;;3.60;2.10;;;;;;;18.73;41.45;101176.72;5039837;28;20206;-66
2021/05/20 10:20:08;;;;;;;2.70;2.50;;;;;;;18.81;41.87;101175.19;5038973;28;20609;-65
2021/05/20 10:22:35;;;;;;;3.50;2.60;;;;;;;18.91;42.66;101173.34;5041543;28;20672;-66
2021/05/20 10:25:02;;;;;;;4.23;3.43;;;;;;;19.03;42.56;101174.94;5042774;28;20225;-66
2021/05/20 10:27:30;;;;;;;4.13;3.37;;;;;;;19.10;42.76;101181.50;5039975;28;20210;-67
2021/05/20 10:29:58;;;;;;;4.20;3.40;;;;;;;19.12;41.97;101168.72;5039371;28;20635;-67
2021/05/20 10:32:25;;;;;;;4.80;3.57;;;;;;;19.10;41.52;101161.75;5036963;28;20205;-67
2021/05/20 10:35:01;;;;;;;4.50;3.50;;;;;;;19.07;42.75;101158.31;5037189;28;20218;-67
2021/05/20 10:37:36;;;;;;;3.70;2.70;;;;;;;19.07;40.92;101154.78;5033633;28;20213;-65
2021/05/20 10:40:08;;;;;;;4.97;3.17;;;;;;;19.04;41.24;101157.75;5038756;28;20220;-66
2021/05/20 10:42:42;;;;;;;3.37;3.07;;;;;;;19.16;41.85;101156.66;5036219;28;20756;-66
2021/05/20 10:45:23;;;;;;;4.10;3.20;;;;;;;19.14;41.01;101153.22;5032200;28;20234;-68
2021/05/20 10:48:20;;;;;;;4.30;3.90;;;;;;;19.08;41.29;101154.63;5032140;28;20211;-67
2021/05/20 10:51:25;;;;;;;3.27;2.50;;;;;;;19.06;41.15;101155.75;5030617;28;20266;-67
2021/05/20 10:54:16;;;;;;;3.30;3.00;;;;;;;19.07;40.59;101155.63;5034127;28;20226;-66
2021/05/20 10:56:54;;;;;;;8.00;3.97;;;;;;;19.07;39.79;101141.28;5038945;28;20273;-67
2021/05/20 10:59:43;;;;;;;3.67;3.07;;;;;;;19.06;40.75;101147.66;5051812;28;20224;-68
2021/05/20 11:02:40;;;;;;;3.97;3.53;;;;;;;19.08;40.52;101143.84;5040467;28;20227;-68
2021/05/20 11:05:52;;;;;;;4.80;3.60;;;;;;;19.09;40.49;101144.69;5033039;28;20320;-68
2021/05/20 11:09:00;;;;;;;4.40;4.00;;;;;;;19.18;40.59;101141.13;5042548;28;20205;-67
2021/05/20 11:11:51;;;;;;;4.57;3.50;;;;;;;19.29;40.83;101141.03;5042973;28;20214;-67
2021/05/20 11:14:37;;;;;;;4.33;2.73;;;;;;;19.31;40.22;101128.22;5045569;28;20807;-67
2021/05/20 11:17:45;;;;;;;2.70;2.30;;;;;;;19.35;39.44;101128.78;5041043;28;20231;-72
2021/05/20 11:20:43;;;;;;;1.47;1.30;;;;;;;19.39;38.28;101128.34;5049339;28;20231;-73
2021/05/20 11:23:23;;;;;;;1.93;1.43;;;;;;;19.39;37.02;101124.81;5050234;28;20212;-72
2021/05/20 11:26:00;;;;;;;3.20;1.50;;;;;;;19.42;37.19;101129.94;5039973;28;20237;-72
2021/05/20 11:28:26;;;;;;;2.63;1.90;;;;;;;19.50;36.20;101129.25;5050759;28;20210;-73
2021/05/20 11:30:57;;;;;;;1.60;1.50;;;;;;;19.56;35.90;101134.06;5049807;28;20216;-73
2021/05/20 11:33:23;;;;;;;2.63;2.27;;;;;;;19.62;36.87;101128.09;5050453;28;20201;-70
2021/05/20 11:36:09;;;;;;;3.67;2.53;;;;;;;19.67;38.18;101131.22;5051360;28;20223;-72
2021/05/20 11:38:35;;;;;;;2.90;1.87;;;;;;;19.64;38.80;101128.81;5049243;28;20597;-71
2021/05/20 11:41:13;;;;;;;3.47;1.83;;;;;;;19.60;38.75;101124.69;5050497;28;20228;-72